Aviation Digital Data Service (ADDS)

Output produced by METARs form (2133 UTC 24 March 2019)
found at http://www.aviationweather.gov/metar/data/
 
WSAP 242100Z 04004KT 9999 FEW018 BKN300 28/25 Q1009
TAF WSAP 241700Z 2418/2600 02006KT 9999 FEW015 SCT020 
     TEMPO 2507/2510 3000 TSRA FEW012CB BKN015
       
WSSL 242100Z VRB02KT 8000 FEW018 BKN300 26/24 Q1009
TAF WSSL 241700Z 2418/2600 02006KT 9999 FEW015 SCT020 
     TEMPO 2507/2510 3000 TSRA FEW012CB BKN015
       
WSSS 242130Z VRB02KT 7000 FEW018 BKN300 27/25 Q1009 NOSIG
TAF WSSS 241700Z 2418/2600 02006KT 9999 FEW015 SCT020 
     TEMPO 2507/2510 3000 TSRA FEW012CB BKN015